KAGS/AGS METAR and TAF weather

Enter ICAO airport designator
Station Type Date Time Source
KAGS METAR 2024/05/28 22:53 UTC NOAA

KAGS 282253Z 30013G19KT 10SM CLR 31/11 A2991 RMK AO2 SLP128 T03110106


Station Type Date Time Source
KAGS Decoded METAR 2024/05/28 22:53 UTC NOAA

AUGUSTA BUSH FIELD, GA, United States (KAGS) 33-22N 081-58W 44M
May 28, 2024 - 06:53 PM EDT / 2024.05.28 2253 UTC
Wind: from the WNW (300 degrees) at 15 MPH (13 KT) gusting to 22 MPH (19 KT):0
Visibility: 10 mile(s):0
Sky conditions: clear
Temperature: 88.0 F (31.1 C)
Dew Point: 51.1 F (10.6 C)
Relative Humidity: 28%
Pressure (altimeter): 29.91 in. Hg (1012 hPa)
ob: KAGS 282253Z 30013G19KT 10SM CLR 31/11 A2991 RMK AO2 SLP128 T03110106
cycle: 23

Station Type Date Time Source
KAGS TAF 2024/05/28 21:59 UTC NOAA